sensor_id;sensor_type;location;lat;lon;timestamp;P1;durP1;ratioP1;P2;durP2;ratioP2
13171;SDS011;6651;53.200;10.432;2022-11-20T00:00:45;8.60;;;6.85;;
13171;SDS011;6651;53.200;10.432;2022-11-20T00:03:11;8.93;;;7.00;;
13171;SDS011;6651;53.200;10.432;2022-11-20T00:05:37;9.13;;;7.00;;
13171;SDS011;6651;53.200;10.432;2022-11-20T00:08:03;8.55;;;7.20;;
13171;SDS011;6651;53.200;10.432;2022-11-20T00:10:29;9.32;;;7.10;;
13171;SDS011;6651;53.200;10.432;2022-11-20T00:12:55;10.70;;;7.82;;
13171;SDS011;6651;53.200;10.432;2022-11-20T00:15:22;9.93;;;8.07;;
13171;SDS011;6651;53.200;10.432;2022-11-20T00:17:48;10.45;;;7.90;;
13171;SDS011;6651;53.200;10.432;2022-11-20T00:20:13;9.45;;;7.53;;
13171;SDS011;6651;53.200;10.432;2022-11-20T00:22:39;9.70;;;7.93;;
13171;SDS011;6651;53.200;10.432;2022-11-20T00:25:05;10.30;;;8.18;;
13171;SDS011;6651;53.200;10.432;2022-11-20T00:27:31;9.73;;;8.43;;
13171;SDS011;6651;53.200;10.432;2022-11-20T00:29:56;9.88;;;8.48;;
13171;SDS011;6651;53.200;10.432;2022-11-20T00:32:22;9.25;;;7.82;;
13171;SDS011;6651;53.200;10.432;2022-11-20T00:34:48;8.95;;;8.05;;
13171;SDS011;6651;53.200;10.432;2022-11-20T00:37:13;9.57;;;7.78;;
13171;SDS011;6651;53.200;10.432;2022-11-20T00:39:39;10.07;;;8.10;;
13171;SDS011;6651;53.200;10.432;2022-11-20T00:42:05;9.93;;;8.00;;
13171;SDS011;6651;53.200;10.432;2022-11-20T00:44:30;8.80;;;7.90;;
13171;SDS011;6651;53.200;10.432;2022-11-20T00:46:56;10.65;;;8.57;;
13171;SDS011;6651;53.200;10.432;2022-11-20T00:49:22;9.98;;;8.85;;
13171;SDS011;6651;53.200;10.432;2022-11-20T00:51:47;8.48;;;7.57;;
13171;SDS011;6651;53.200;10.432;2022-11-20T00:54:13;10.95;;;8.43;;
13171;SDS011;6651;53.200;10.432;2022-11-20T00:56:38;10.02;;;8.80;;
13171;SDS011;6651;53.200;10.432;2022-11-20T00:59:05;8.82;;;7.82;;
13171;SDS011;6651;53.200;10.432;2022-11-20T01:01:30;9.70;;;8.13;;
13171;SDS011;6651;53.200;10.432;2022-11-20T01:03:58;9.70;;;8.32;;
13171;SDS011;6651;53.200;10.432;2022-11-20T01:06:26;10.02;;;8.13;;
13171;SDS011;6651;53.200;10.432;2022-11-20T01:08:54;9.57;;;8.57;;
13171;SDS011;6651;53.200;10.432;2022-11-20T01:11:29;9.85;;;8.63;;
13171;SDS011;6651;53.200;10.432;2022-11-20T01:13:56;10.50;;;8.10;;
13171;SDS011;6651;53.200;10.432;2022-11-20T01:16:27;9.32;;;8.30;;
13171;SDS011;6651;53.200;10.432;2022-11-20T01:18:57;11.00;;;8.10;;
13171;SDS011;6651;53.200;10.432;2022-11-20T01:21:34;10.35;;;8.63;;
13171;SDS011;6651;53.200;10.432;2022-11-20T01:24:01;9.65;;;8.60;;
13171;SDS011;6651;53.200;10.432;2022-11-20T01:26:30;10.50;;;8.02;;
13171;SDS011;6651;53.200;10.432;2022-11-20T01:28:57;11.45;;;8.48;;
13171;SDS011;6651;53.200;10.432;2022-11-20T01:31:34;9.60;;;7.97;;
13171;SDS011;6651;53.200;10.432;2022-11-20T01:34:03;9.30;;;8.18;;
13171;SDS011;6651;53.200;10.432;2022-11-20T01:36:31;10.20;;;8.93;;
13171;SDS011;6651;53.200;10.432;2022-11-20T01:38:59;9.68;;;8.38;;
13171;SDS011;6651;53.200;10.432;2022-11-20T01:41:27;9.60;;;8.52;;
13171;SDS011;6651;53.200;10.432;2022-11-20T01:44:13;10.15;;;8.85;;
13171;SDS011;6651;53.200;10.432;2022-11-20T01:47:02;9.18;;;8.18;;
13171;SDS011;6651;53.200;10.432;2022-11-20T01:49:39;13.43;;;8.18;;
13171;SDS011;6651;53.200;10.432;2022-11-20T01:52:12;9.27;;;8.18;;
13171;SDS011;6651;53.200;10.432;2022-11-20T01:55:19;9.02;;;7.85;;
13171;SDS011;6651;53.200;10.432;2022-11-20T01:57:39;11.07;;;8.18;;
13171;SDS011;6651;53.200;10.432;2022-11-20T02:00:07;9.02;;;7.72;;
13171;SDS011;6651;53.200;10.432;2022-11-20T02:02:35;8.57;;;7.15;;
13171;SDS011;6651;53.200;10.432;2022-11-20T02:05:04;7.97;;;7.18;;
13171;SDS011;6651;53.200;10.432;2022-11-20T02:07:49;8.48;;;6.90;;
13171;SDS011;6651;53.200;10.432;2022-11-20T02:10:15;8.38;;;7.13;;
13171;SDS011;6651;53.200;10.432;2022-11-20T02:12:41;8.23;;;7.35;;
13171;SDS011;6651;53.200;10.432;2022-11-20T02:15:26;9.50;;;7.32;;
13171;SDS011;6651;53.200;10.432;2022-11-20T02:17:52;9.00;;;7.53;;
13171;SDS011;6651;53.200;10.432;2022-11-20T02:20:18;9.35;;;7.40;;
13171;SDS011;6651;53.200;10.432;2022-11-20T02:22:48;8.77;;;7.32;;
13171;SDS011;6651;53.200;10.432;2022-11-20T02:25:19;8.55;;;7.28;;
13171;SDS011;6651;53.200;10.432;2022-11-20T02:27:46;9.02;;;7.25;;
13171;SDS011;6651;53.200;10.432;2022-11-20T02:30:12;9.00;;;7.65;;
13171;SDS011;6651;53.200;10.432;2022-11-20T02:32:38;9.27;;;7.50;;
13171;SDS011;6651;53.200;10.432;2022-11-20T02:37:46;9.52;;;7.30;;
13171;SDS011;6651;53.200;10.432;2022-11-20T02:40:15;10.18;;;7.20;;
13171;SDS011;6651;53.200;10.432;2022-11-20T02:42:41;7.80;;;6.72;;
13171;SDS011;6651;53.200;10.432;2022-11-20T02:45:07;7.80;;;6.90;;
13171;SDS011;6651;53.200;10.432;2022-11-20T02:47:33;9.73;;;7.15;;
13171;SDS011;6651;53.200;10.432;2022-11-20T02:49:59;7.60;;;6.68;;
13171;SDS011;6651;53.200;10.432;2022-11-20T02:52:24;10.00;;;7.30;;
13171;SDS011;6651;53.200;10.432;2022-11-20T02:54:50;7.68;;;6.65;;
13171;SDS011;6651;53.200;10.432;2022-11-20T02:57:16;9.63;;;6.97;;
13171;SDS011;6651;53.200;10.432;2022-11-20T02:59:41;8.80;;;6.93;;
13171;SDS011;6651;53.200;10.432;2022-11-20T03:02:07;8.73;;;6.57;;
13171;SDS011;6651;53.200;10.432;2022-11-20T03:04:33;9.55;;;7.05;;
13171;SDS011;6651;53.200;10.432;2022-11-20T03:06:58;8.07;;;6.32;;
13171;SDS011;6651;53.200;10.432;2022-11-20T03:09:24;7.72;;;6.45;;
13171;SDS011;6651;53.200;10.432;2022-11-20T03:11:50;8.00;;;6.93;;
13171;SDS011;6651;53.200;10.432;2022-11-20T03:14:16;8.30;;;6.68;;
13171;SDS011;6651;53.200;10.432;2022-11-20T03:16:42;9.27;;;6.78;;
13171;SDS011;6651;53.200;10.432;2022-11-20T03:19:07;9.07;;;7.47;;
13171;SDS011;6651;53.200;10.432;2022-11-20T03:21:33;10.15;;;7.10;;
13171;SDS011;6651;53.200;10.432;2022-11-20T03:23:59;8.10;;;6.93;;
13171;SDS011;6651;53.200;10.432;2022-11-20T03:26:25;8.70;;;7.35;;
13171;SDS011;6651;53.200;10.432;2022-11-20T03:28:53;7.82;;;6.68;;
13171;SDS011;6651;53.200;10.432;2022-11-20T03:31:22;8.98;;;7.15;;
13171;SDS011;6651;53.200;10.432;2022-11-20T03:33:49;8.68;;;6.93;;
13171;SDS011;6651;53.200;10.432;2022-11-20T03:36:16;7.10;;;6.10;;
13171;SDS011;6651;53.200;10.432;2022-11-20T03:38:43;9.50;;;6.80;;
13171;SDS011;6651;53.200;10.432;2022-11-20T03:41:13;8.13;;;6.80;;
13171;SDS011;6651;53.200;10.432;2022-11-20T03:43:57;7.13;;;6.03;;
13171;SDS011;6651;53.200;10.432;2022-11-20T03:46:25;8.63;;;7.03;;
13171;SDS011;6651;53.200;10.432;2022-11-20T03:48:52;7.95;;;6.57;;
13171;SDS011;6651;53.200;10.432;2022-11-20T03:51:28;9.02;;;6.32;;
13171;SDS011;6651;53.200;10.432;2022-11-20T03:53:56;8.48;;;6.65;;
13171;SDS011;6651;53.200;10.432;2022-11-20T03:56:25;8.98;;;6.90;;
13171;SDS011;6651;53.200;10.432;2022-11-20T03:58:52;9.60;;;6.97;;
13171;SDS011;6651;53.200;10.432;2022-11-20T04:01:18;7.85;;;6.70;;
13171;SDS011;6651;53.200;10.432;2022-11-20T04:03:46;8.82;;;6.90;;
13171;SDS011;6651;53.200;10.432;2022-11-20T04:06:16;8.98;;;6.25;;
13171;SDS011;6651;53.200;10.432;2022-11-20T04:08:44;8.35;;;6.28;;
13171;SDS011;6651;53.200;10.432;2022-11-20T04:13:41;7.38;;;6.32;;
13171;SDS011;6651;53.200;10.432;2022-11-20T04:16:08;8.05;;;6.18;;
13171;SDS011;6651;53.200;10.432;2022-11-20T04:18:35;7.88;;;6.25;;
13171;SDS011;6651;53.200;10.432;2022-11-20T04:21:01;7.80;;;6.40;;
13171;SDS011;6651;53.200;10.432;2022-11-20T04:23:27;8.13;;;6.47;;
13171;SDS011;6651;53.200;10.432;2022-11-20T04:25:53;7.72;;;6.22;;
13171;SDS011;6651;53.200;10.432;2022-11-20T04:28:19;8.32;;;6.50;;
13171;SDS011;6651;53.200;10.432;2022-11-20T04:30:45;7.90;;;6.50;;
13171;SDS011;6651;53.200;10.432;2022-11-20T04:33:11;8.13;;;6.28;;
13171;SDS011;6651;53.200;10.432;2022-11-20T04:35:37;8.40;;;6.80;;
13171;SDS011;6651;53.200;10.432;2022-11-20T04:38:03;8.00;;;6.68;;
13171;SDS011;6651;53.200;10.432;2022-11-20T04:40:29;8.18;;;6.65;;
13171;SDS011;6651;53.200;10.432;2022-11-20T04:42:55;7.65;;;6.28;;
13171;SDS011;6651;53.200;10.432;2022-11-20T04:45:24;7.75;;;6.68;;
13171;SDS011;6651;53.200;10.432;2022-11-20T04:47:50;9.00;;;6.88;;
13171;SDS011;6651;53.200;10.432;2022-11-20T04:50:15;10.35;;;7.28;;
13171;SDS011;6651;53.200;10.432;2022-11-20T04:52:41;8.60;;;7.15;;
13171;SDS011;6651;53.200;10.432;2022-11-20T04:55:07;9.10;;;7.10;;
13171;SDS011;6651;53.200;10.432;2022-11-20T04:57:33;8.75;;;7.15;;
13171;SDS011;6651;53.200;10.432;2022-11-20T04:59:58;9.90;;;8.02;;
13171;SDS011;6651;53.200;10.432;2022-11-20T05:02:24;10.05;;;8.02;;
13171;SDS011;6651;53.200;10.432;2022-11-20T05:04:49;9.38;;;7.93;;
13171;SDS011;6651;53.200;10.432;2022-11-20T05:07:15;9.52;;;7.38;;
13171;SDS011;6651;53.200;10.432;2022-11-20T05:09:41;9.30;;;7.80;;
13171;SDS011;6651;53.200;10.432;2022-11-20T05:12:07;9.55;;;8.48;;
13171;SDS011;6651;53.200;10.432;2022-11-20T05:14:34;10.63;;;8.60;;
13171;SDS011;6651;53.200;10.432;2022-11-20T05:16:59;10.30;;;8.65;;
13171;SDS011;6651;53.200;10.432;2022-11-20T05:19:25;10.05;;;8.90;;
13171;SDS011;6651;53.200;10.432;2022-11-20T05:21:51;10.55;;;8.45;;
13171;SDS011;6651;53.200;10.432;2022-11-20T05:24:16;11.93;;;8.73;;
13171;SDS011;6651;53.200;10.432;2022-11-20T05:26:42;10.15;;;8.85;;
13171;SDS011;6651;53.200;10.432;2022-11-20T05:29:11;11.48;;;8.85;;
13171;SDS011;6651;53.200;10.432;2022-11-20T05:31:38;10.98;;;9.35;;
13171;SDS011;6651;53.200;10.432;2022-11-20T05:34:05;11.90;;;9.65;;
13171;SDS011;6651;53.200;10.432;2022-11-20T05:36:31;12.20;;;10.73;;
13171;SDS011;6651;53.200;10.432;2022-11-20T05:38:57;12.18;;;10.50;;
13171;SDS011;6651;53.200;10.432;2022-11-20T05:41:22;13.15;;;10.80;;
13171;SDS011;6651;53.200;10.432;2022-11-20T05:43:48;12.30;;;10.75;;
13171;SDS011;6651;53.200;10.432;2022-11-20T05:46:16;12.05;;;10.63;;
13171;SDS011;6651;53.200;10.432;2022-11-20T05:48:43;12.60;;;10.18;;
13171;SDS011;6651;53.200;10.432;2022-11-20T05:51:11;12.95;;;10.85;;
13171;SDS011;6651;53.200;10.432;2022-11-20T05:53:38;13.63;;;11.73;;
13171;SDS011;6651;53.200;10.432;2022-11-20T05:56:05;12.57;;;10.95;;
13171;SDS011;6651;53.200;10.432;2022-11-20T05:58:33;15.18;;;11.98;;
13171;SDS011;6651;53.200;10.432;2022-11-20T06:01:06;15.30;;;12.18;;
13171;SDS011;6651;53.200;10.432;2022-11-20T06:03:33;14.35;;;11.95;;
13171;SDS011;6651;53.200;10.432;2022-11-20T06:05:59;13.10;;;11.25;;
13171;SDS011;6651;53.200;10.432;2022-11-20T06:08:25;14.00;;;11.68;;
13171;SDS011;6651;53.200;10.432;2022-11-20T06:10:50;13.43;;;11.88;;
13171;SDS011;6651;53.200;10.432;2022-11-20T06:13:16;13.45;;;11.38;;
13171;SDS011;6651;53.200;10.432;2022-11-20T06:15:47;13.43;;;11.27;;
13171;SDS011;6651;53.200;10.432;2022-11-20T06:18:14;12.32;;;11.02;;
13171;SDS011;6651;53.200;10.432;2022-11-20T06:20:40;12.93;;;11.02;;
13171;SDS011;6651;53.200;10.432;2022-11-20T06:23:05;13.40;;;11.55;;
13171;SDS011;6651;53.200;10.432;2022-11-20T06:25:31;13.05;;;11.63;;
13171;SDS011;6651;53.200;10.432;2022-11-20T06:27:56;14.68;;;12.25;;
13171;SDS011;6651;53.200;10.432;2022-11-20T06:30:25;15.00;;;12.75;;
13171;SDS011;6651;53.200;10.432;2022-11-20T06:32:50;14.80;;;12.73;;
13171;SDS011;6651;53.200;10.432;2022-11-20T06:35:16;16.88;;;13.52;;
13171;SDS011;6651;53.200;10.432;2022-11-20T06:37:44;16.70;;;13.40;;
13171;SDS011;6651;53.200;10.432;2022-11-20T06:40:10;14.70;;;13.18;;
13171;SDS011;6651;53.200;10.432;2022-11-20T06:42:36;14.65;;;13.05;;
13171;SDS011;6651;53.200;10.432;2022-11-20T06:45:02;15.18;;;13.32;;
13171;SDS011;6651;53.200;10.432;2022-11-20T06:47:27;16.65;;;13.88;;
13171;SDS011;6651;53.200;10.432;2022-11-20T06:49:53;17.17;;;14.52;;
13171;SDS011;6651;53.200;10.432;2022-11-20T06:52:19;16.13;;;13.80;;
13171;SDS011;6651;53.200;10.432;2022-11-20T06:54:44;16.35;;;13.98;;
13171;SDS011;6651;53.200;10.432;2022-11-20T06:57:10;16.98;;;15.07;;
13171;SDS011;6651;53.200;10.432;2022-11-20T06:59:36;17.55;;;13.80;;
13171;SDS011;6651;53.200;10.432;2022-11-20T07:02:01;19.73;;;13.95;;
13171;SDS011;6651;53.200;10.432;2022-11-20T07:04:27;19.17;;;14.15;;
13171;SDS011;6651;53.200;10.432;2022-11-20T07:06:52;15.90;;;14.23;;
13171;SDS011;6651;53.200;10.432;2022-11-20T07:09:18;17.95;;;15.32;;
13171;SDS011;6651;53.200;10.432;2022-11-20T07:11:44;18.02;;;14.18;;
13171;SDS011;6651;53.200;10.432;2022-11-20T07:14:09;17.27;;;14.18;;
13171;SDS011;6651;53.200;10.432;2022-11-20T07:16:35;16.30;;;13.48;;
13171;SDS011;6651;53.200;10.432;2022-11-20T07:19:01;18.10;;;15.13;;
13171;SDS011;6651;53.200;10.432;2022-11-20T07:21:26;18.05;;;15.48;;
13171;SDS011;6651;53.200;10.432;2022-11-20T07:23:52;18.77;;;14.88;;
13171;SDS011;6651;53.200;10.432;2022-11-20T07:26:17;18.67;;;15.80;;
13171;SDS011;6651;53.200;10.432;2022-11-20T07:28:44;19.38;;;14.85;;
13171;SDS011;6651;53.200;10.432;2022-11-20T07:31:10;17.92;;;14.85;;
13171;SDS011;6651;53.200;10.432;2022-11-20T07:33:36;17.77;;;15.10;;
13171;SDS011;6651;53.200;10.432;2022-11-20T07:36:02;17.20;;;14.23;;
13171;SDS011;6651;53.200;10.432;2022-11-20T07:38:29;18.63;;;15.15;;
13171;SDS011;6651;53.200;10.432;2022-11-20T07:40:55;17.27;;;14.52;;
13171;SDS011;6651;53.200;10.432;2022-11-20T07:43:22;16.05;;;14.35;;
13171;SDS011;6651;53.200;10.432;2022-11-20T07:45:49;15.70;;;14.02;;
13171;SDS011;6651;53.200;10.432;2022-11-20T07:48:14;18.40;;;15.07;;
13171;SDS011;6651;53.200;10.432;2022-11-20T07:50:40;19.35;;;16.25;;
13171;SDS011;6651;53.200;10.432;2022-11-20T07:53:06;17.58;;;15.65;;
13171;SDS011;6651;53.200;10.432;2022-11-20T07:55:32;17.48;;;14.77;;
13171;SDS011;6651;53.200;10.432;2022-11-20T07:57:58;19.27;;;16.92;;
13171;SDS011;6651;53.200;10.432;2022-11-20T08:00:24;20.27;;;16.80;;
13171;SDS011;6651;53.200;10.432;2022-11-20T08:02:51;18.88;;;16.63;;
13171;SDS011;6651;53.200;10.432;2022-11-20T08:05:17;18.90;;;15.18;;
13171;SDS011;6651;53.200;10.432;2022-11-20T08:07:43;19.55;;;17.00;;
13171;SDS011;6651;53.200;10.432;2022-11-20T08:10:10;19.98;;;16.02;;
13171;SDS011;6651;53.200;10.432;2022-11-20T08:12:47;17.10;;;14.95;;
13171;SDS011;6651;53.200;10.432;2022-11-20T08:15:33;19.42;;;16.30;;
13171;SDS011;6651;53.200;10.432;2022-11-20T08:18:00;18.85;;;15.50;;
13171;SDS011;6651;53.200;10.432;2022-11-20T08:20:27;18.92;;;15.93;;
13171;SDS011;6651;53.200;10.432;2022-11-20T08:22:57;20.25;;;16.40;;
13171;SDS011;6651;53.200;10.432;2022-11-20T08:25:24;20.30;;;17.40;;
13171;SDS011;6651;53.200;10.432;2022-11-20T08:27:50;18.60;;;15.63;;
13171;SDS011;6651;53.200;10.432;2022-11-20T08:30:16;17.95;;;14.50;;
13171;SDS011;6651;53.200;10.432;2022-11-20T08:32:44;18.75;;;15.90;;
13171;SDS011;6651;53.200;10.432;2022-11-20T08:35:10;19.45;;;16.95;;
13171;SDS011;6651;53.200;10.432;2022-11-20T08:37:36;18.88;;;16.88;;
13171;SDS011;6651;53.200;10.432;2022-11-20T08:40:03;19.02;;;15.93;;
13171;SDS011;6651;53.200;10.432;2022-11-20T08:42:29;18.15;;;15.23;;
13171;SDS011;6651;53.200;10.432;2022-11-20T08:44:55;16.83;;;14.93;;
13171;SDS011;6651;53.200;10.432;2022-11-20T08:47:20;15.63;;;13.95;;
13171;SDS011;6651;53.200;10.432;2022-11-20T08:49:46;15.65;;;13.95;;
13171;SDS011;6651;53.200;10.432;2022-11-20T08:52:12;16.77;;;13.98;;
13171;SDS011;6651;53.200;10.432;2022-11-20T08:54:37;15.48;;;13.40;;
13171;SDS011;6651;53.200;10.432;2022-11-20T08:57:03;14.45;;;12.85;;
13171;SDS011;6651;53.200;10.432;2022-11-20T08:59:28;15.93;;;14.02;;
13171;SDS011;6651;53.200;10.432;2022-11-20T09:01:55;14.52;;;12.70;;
13171;SDS011;6651;53.200;10.432;2022-11-20T09:04:21;15.70;;;13.05;;
13171;SDS011;6651;53.200;10.432;2022-11-20T09:06:47;15.35;;;13.07;;
13171;SDS011;6651;53.200;10.432;2022-11-20T09:09:15;17.02;;;12.70;;
13171;SDS011;6651;53.200;10.432;2022-11-20T09:11:43;14.60;;;12.63;;
13171;SDS011;6651;53.200;10.432;2022-11-20T09:14:08;16.45;;;13.48;;
13171;SDS011;6651;53.200;10.432;2022-11-20T09:16:34;12.75;;;11.30;;
13171;SDS011;6651;53.200;10.432;2022-11-20T09:18:59;14.38;;;11.82;;
13171;SDS011;6651;53.200;10.432;2022-11-20T09:21:25;13.13;;;11.23;;
13171;SDS011;6651;53.200;10.432;2022-11-20T09:23:51;13.73;;;11.60;;
13171;SDS011;6651;53.200;10.432;2022-11-20T09:26:16;12.27;;;10.32;;
13171;SDS011;6651;53.200;10.432;2022-11-20T09:28:42;12.02;;;10.10;;
13171;SDS011;6651;53.200;10.432;2022-11-20T09:31:08;11.88;;;10.10;;
13171;SDS011;6651;53.200;10.432;2022-11-20T09:33:47;11.55;;;9.85;;
13171;SDS011;6651;53.200;10.432;2022-11-20T09:36:13;10.25;;;9.07;;
13171;SDS011;6651;53.200;10.432;2022-11-20T09:38:39;10.75;;;9.48;;
13171;SDS011;6651;53.200;10.432;2022-11-20T09:41:05;10.95;;;9.20;;
13171;SDS011;6651;53.200;10.432;2022-11-20T09:46:29;11.02;;;9.27;;
13171;SDS011;6651;53.200;10.432;2022-11-20T09:51:49;11.77;;;8.70;;
13171;SDS011;6651;53.200;10.432;2022-11-20T09:54:27;10.07;;;8.77;;
13171;SDS011;6651;53.200;10.432;2022-11-20T09:57:01;10.00;;;8.25;;
13171;SDS011;6651;53.200;10.432;2022-11-20T09:59:44;8.98;;;7.25;;
13171;SDS011;6651;53.200;10.432;2022-11-20T10:02:15;11.23;;;7.85;;
13171;SDS011;6651;53.200;10.432;2022-11-20T10:04:53;8.85;;;7.90;;
13171;SDS011;6651;53.200;10.432;2022-11-20T10:10:19;8.82;;;7.35;;
13171;SDS011;6651;53.200;10.432;2022-11-20T10:13:07;10.15;;;8.05;;
13171;SDS011;6651;53.200;10.432;2022-11-20T10:18:39;11.02;;;7.45;;
13171;SDS011;6651;53.200;10.432;2022-11-20T10:21:24;10.82;;;7.65;;
13171;SDS011;6651;53.200;10.432;2022-11-20T10:29:18;10.52;;;8.43;;
13171;SDS011;6651;53.200;10.432;2022-11-20T10:31:52;8.85;;;7.85;;
13171;SDS011;6651;53.200;10.432;2022-11-20T10:34:42;12.00;;;8.35;;
13171;SDS011;6651;53.200;10.432;2022-11-20T10:37:15;10.25;;;7.90;;
13171;SDS011;6651;53.200;10.432;2022-11-20T10:39:51;9.82;;;7.40;;
13171;SDS011;6651;53.200;10.432;2022-11-20T10:42:29;11.50;;;8.60;;
13171;SDS011;6651;53.200;10.432;2022-11-20T10:45:11;9.75;;;7.97;;
13171;SDS011;6651;53.200;10.432;2022-11-20T10:47:40;10.00;;;7.53;;
13171;SDS011;6651;53.200;10.432;2022-11-20T10:50:09;9.50;;;7.53;;
13171;SDS011;6651;53.200;10.432;2022-11-20T11:01:17;9.07;;;7.40;;
13171;SDS011;6651;53.200;10.432;2022-11-20T11:03:48;7.95;;;7.10;;
13171;SDS011;6651;53.200;10.432;2022-11-20T11:08:51;8.98;;;7.40;;
13171;SDS011;6651;53.200;10.432;2022-11-20T11:11:21;8.75;;;6.75;;
13171;SDS011;6651;53.200;10.432;2022-11-20T11:13:49;7.88;;;7.07;;
13171;SDS011;6651;53.200;10.432;2022-11-20T11:16:33;8.32;;;7.45;;
13171;SDS011;6651;53.200;10.432;2022-11-20T11:19:05;8.43;;;7.35;;
13171;SDS011;6651;53.200;10.432;2022-11-20T11:21:32;8.98;;;7.25;;
13171;SDS011;6651;53.200;10.432;2022-11-20T11:24:02;8.40;;;7.43;;
13171;SDS011;6651;53.200;10.432;2022-11-20T11:26:29;9.15;;;7.72;;
13171;SDS011;6651;53.200;10.432;2022-11-20T11:29:02;8.82;;;7.35;;
13171;SDS011;6651;53.200;10.432;2022-11-20T11:31:29;7.95;;;6.90;;
13171;SDS011;6651;53.200;10.432;2022-11-20T11:34:12;10.82;;;7.32;;
13171;SDS011;6651;53.200;10.432;2022-11-20T11:36:40;8.70;;;7.35;;
13171;SDS011;6651;53.200;10.432;2022-11-20T11:39:11;8.05;;;7.25;;
13171;SDS011;6651;53.200;10.432;2022-11-20T11:41:39;9.02;;;7.43;;
13171;SDS011;6651;53.200;10.432;2022-11-20T11:44:16;7.78;;;6.72;;
13171;SDS011;6651;53.200;10.432;2022-11-20T11:47:02;7.85;;;6.95;;
13171;SDS011;6651;53.200;10.432;2022-11-20T11:49:30;12.10;;;8.25;;
13171;SDS011;6651;53.200;10.432;2022-11-20T11:57:00;8.02;;;6.35;;
13171;SDS011;6651;53.200;10.432;2022-11-20T12:07:45;8.43;;;6.45;;
13171;SDS011;6651;53.200;10.432;2022-11-20T12:10:28;7.65;;;6.40;;
13171;SDS011;6651;53.200;10.432;2022-11-20T12:15:58;8.10;;;5.82;;
13171;SDS011;6651;53.200;10.432;2022-11-20T12:18:25;6.45;;;5.68;;
13171;SDS011;6651;53.200;10.432;2022-11-20T12:29:02;6.97;;;5.78;;
13171;SDS011;6651;53.200;10.432;2022-11-20T12:32:47;9.10;;;5.50;;
13171;SDS011;6651;53.200;10.432;2022-11-20T12:34:44;6.55;;;5.40;;
13171;SDS011;6651;53.200;10.432;2022-11-20T12:42:13;5.90;;;5.10;;
13171;SDS011;6651;53.200;10.432;2022-11-20T12:48:08;7.32;;;5.35;;
13171;SDS011;6651;53.200;10.432;2022-11-20T12:59:28;5.28;;;4.70;;
13171;SDS011;6651;53.200;10.432;2022-11-20T13:04:55;5.93;;;5.13;;
13171;SDS011;6651;53.200;10.432;2022-11-20T13:07:33;6.43;;;5.40;;
13171;SDS011;6651;53.200;10.432;2022-11-20T13:10:01;6.45;;;5.15;;
13171;SDS011;6651;53.200;10.432;2022-11-20T13:12:44;7.00;;;5.68;;
13171;SDS011;6651;53.200;10.432;2022-11-20T13:18:08;7.55;;;6.00;;
13171;SDS011;6651;53.200;10.432;2022-11-20T13:20:36;6.80;;;5.60;;
13171;SDS011;6651;53.200;10.432;2022-11-20T13:23:07;7.68;;;5.53;;
13171;SDS011;6651;53.200;10.432;2022-11-20T13:25:33;6.18;;;5.28;;
13171;SDS011;6651;53.200;10.432;2022-11-20T13:28:03;6.05;;;5.28;;
13171;SDS011;6651;53.200;10.432;2022-11-20T13:30:53;6.50;;;5.60;;
13171;SDS011;6651;53.200;10.432;2022-11-20T13:33:28;9.18;;;6.68;;
13171;SDS011;6651;53.200;10.432;2022-11-20T13:35:58;7.35;;;5.70;;
13171;SDS011;6651;53.200;10.432;2022-11-20T13:38:48;5.90;;;5.30;;
13171;SDS011;6651;53.200;10.432;2022-11-20T13:41:26;5.85;;;5.22;;
13171;SDS011;6651;53.200;10.432;2022-11-20T13:43:53;5.85;;;5.05;;
13171;SDS011;6651;53.200;10.432;2022-11-20T13:46:23;6.03;;;5.22;;
13171;SDS011;6651;53.200;10.432;2022-11-20T13:48:59;6.25;;;5.07;;
13171;SDS011;6651;53.200;10.432;2022-11-20T13:51:42;10.13;;;7.57;;
13171;SDS011;6651;53.200;10.432;2022-11-20T14:00:13;6.05;;;4.72;;
13171;SDS011;6651;53.200;10.432;2022-11-20T14:02:44;5.80;;;4.90;;
13171;SDS011;6651;53.200;10.432;2022-11-20T14:05:23;6.28;;;4.72;;
13171;SDS011;6651;53.200;10.432;2022-11-20T14:07:49;6.30;;;5.05;;
13171;SDS011;6651;53.200;10.432;2022-11-20T14:10:23;4.95;;;4.40;;
13171;SDS011;6651;53.200;10.432;2022-11-20T14:12:51;6.05;;;4.57;;
13171;SDS011;6651;53.200;10.432;2022-11-20T14:15:56;4.57;;;4.13;;
13171;SDS011;6651;53.200;10.432;2022-11-20T14:18:14;4.88;;;4.30;;
13171;SDS011;6651;53.200;10.432;2022-11-20T14:20:47;6.00;;;4.38;;
13171;SDS011;6651;53.200;10.432;2022-11-20T14:23:22;4.55;;;3.88;;
13171;SDS011;6651;53.200;10.432;2022-11-20T14:25:53;4.40;;;4.00;;
13171;SDS011;6651;53.200;10.432;2022-11-20T14:28:21;5.32;;;4.70;;
13171;SDS011;6651;53.200;10.432;2022-11-20T14:30:51;5.63;;;4.60;;
13171;SDS011;6651;53.200;10.432;2022-11-20T14:33:17;7.35;;;5.20;;
13171;SDS011;6651;53.200;10.432;2022-11-20T14:35:48;6.55;;;5.10;;
13171;SDS011;6651;53.200;10.432;2022-11-20T14:38:17;5.85;;;5.20;;
13171;SDS011;6651;53.200;10.432;2022-11-20T14:40:45;4.72;;;4.22;;
13171;SDS011;6651;53.200;10.432;2022-11-20T14:45:59;6.47;;;4.50;;
13171;SDS011;6651;53.200;10.432;2022-11-20T14:48:40;4.55;;;4.10;;
13171;SDS011;6651;53.200;10.432;2022-11-20T14:54:18;5.68;;;4.40;;
13171;SDS011;6651;53.200;10.432;2022-11-20T14:56:55;4.60;;;4.13;;
13171;SDS011;6651;53.200;10.432;2022-11-20T14:59:34;4.50;;;4.10;;
13171;SDS011;6651;53.200;10.432;2022-11-20T15:02:04;8.75;;;6.50;;
13171;SDS011;6651;53.200;10.432;2022-11-20T15:04:31;6.88;;;5.57;;
13171;SDS011;6651;53.200;10.432;2022-11-20T15:06:58;7.13;;;5.97;;
13171;SDS011;6651;53.200;10.432;2022-11-20T15:09:24;5.13;;;4.47;;
13171;SDS011;6651;53.200;10.432;2022-11-20T15:11:57;5.28;;;4.68;;
13171;SDS011;6651;53.200;10.432;2022-11-20T15:14:26;5.63;;;4.20;;
13171;SDS011;6651;53.200;10.432;2022-11-20T15:16:53;8.73;;;7.22;;
13171;SDS011;6651;53.200;10.432;2022-11-20T15:19:20;6.75;;;5.85;;
13171;SDS011;6651;53.200;10.432;2022-11-20T15:21:48;8.85;;;6.35;;
13171;SDS011;6651;53.200;10.432;2022-11-20T15:24:14;7.30;;;5.85;;
13171;SDS011;6651;53.200;10.432;2022-11-20T15:26:40;5.30;;;4.68;;
13171;SDS011;6651;53.200;10.432;2022-11-20T15:29:11;7.18;;;5.07;;
13171;SDS011;6651;53.200;10.432;2022-11-20T15:31:38;5.93;;;5.18;;
13171;SDS011;6651;53.200;10.432;2022-11-20T15:34:13;5.18;;;4.60;;
13171;SDS011;6651;53.200;10.432;2022-11-20T15:36:39;6.60;;;5.60;;
13171;SDS011;6651;53.200;10.432;2022-11-20T15:39:06;8.55;;;7.20;;
13171;SDS011;6651;53.200;10.432;2022-11-20T15:41:34;8.70;;;7.63;;
13171;SDS011;6651;53.200;10.432;2022-11-20T15:44:00;9.65;;;7.90;;
13171;SDS011;6651;53.200;10.432;2022-11-20T15:46:27;8.35;;;7.25;;
13171;SDS011;6651;53.200;10.432;2022-11-20T15:48:56;8.60;;;7.60;;
13171;SDS011;6651;53.200;10.432;2022-11-20T15:51:28;8.73;;;7.82;;
13171;SDS011;6651;53.200;10.432;2022-11-20T15:53:54;6.65;;;5.78;;
13171;SDS011;6651;53.200;10.432;2022-11-20T15:56:20;6.18;;;5.30;;
13171;SDS011;6651;53.200;10.432;2022-11-20T15:58:46;5.78;;;4.45;;
13171;SDS011;6651;53.200;10.432;2022-11-20T16:01:17;4.80;;;4.28;;
13171;SDS011;6651;53.200;10.432;2022-11-20T16:03:44;4.88;;;4.20;;
13171;SDS011;6651;53.200;10.432;2022-11-20T16:06:10;4.75;;;4.25;;
13171;SDS011;6651;53.200;10.432;2022-11-20T16:08:36;5.25;;;4.47;;
13171;SDS011;6651;53.200;10.432;2022-11-20T16:11:02;4.40;;;4.00;;
13171;SDS011;6651;53.200;10.432;2022-11-20T16:13:28;6.00;;;4.95;;
13171;SDS011;6651;53.200;10.432;2022-11-20T16:16:30;4.88;;;4.38;;
13171;SDS011;6651;53.200;10.432;2022-11-20T16:18:58;5.93;;;4.97;;
13171;SDS011;6651;53.200;10.432;2022-11-20T16:21:25;6.22;;;5.15;;